Time;durP1;ratioP1;P1;durP2;ratioP2;P2;SDS_P1;SDS_P2;PMS_P1;PMS_P2;Temp;Humidity;BMP_temperature;BMP_pressure;BME280_temperature;BME280_humidity;BME280_pressure;Samples;Min_cycle;Max_cycle;Signal;HPM_P1;HPM_P2
2021/04/02 08:48:27;;;;;;;7.35;2.42;;;18.40;58.00;;;;;;21145263;27;20388;-52
2021/04/02 08:58:31;;;;;;;13.68;2.47;;;18.50;58.40;;;;;;21143448;28;20032;-49
2021/04/02 09:08:35;;;;;;;8.57;2.40;;;19.00;55.10;;;;;;21144116;28;20036;-48
2021/04/02 09:18:52;;;;;;;9.77;2.58;;;19.20;55.80;;;;;;21143231;28;20028;-51
2021/04/02 09:28:59;;;;;;;6.13;2.42;;;19.60;54.40;;;;;;21142839;28;20081;-49
2021/04/02 09:39:14;;;;;;;9.45;2.55;;;20.10;54.40;;;;;;21141379;28;20501;-49
2021/04/02 09:49:27;;;;;;;9.07;2.70;;;20.40;52.80;;;;;;21141169;28;20369;-52
2021/04/02 09:59:31;;;;;;;10.10;2.42;;;20.30;54.10;;;;;;21085556;28;20040;-49
2021/04/02 10:09:36;;;;;;;11.07;2.55;;;20.60;54.00;;;;;;21084520;28;20397;-50
2021/04/02 10:19:39;;;;;;;12.05;2.40;;;20.70;52.80;;;;;;21082599;28;20105;-49
2021/04/02 10:29:41;;;;;;;8.43;2.72;;;21.00;52.50;;;;;;21081925;28;20093;-49
2021/04/02 10:39:43;;;;;;;14.88;3.25;;;20.90;49.30;;;;;;21080386;28;20574;-54
2021/04/02 10:49:44;;;;;;;14.13;3.80;;;20.50;45.20;;;;;;21079935;28;20032;-49
2021/04/02 10:59:47;;;;;;;13.15;5.60;;;20.00;49.50;;;;;;21079430;28;20040;-51
2021/04/02 11:09:49;;;;;;;16.45;6.45;;;20.30;54.40;;;;;;21077277;28;20036;-51
2021/04/02 11:19:53;;;;;;;21.55;10.23;;;20.50;51.50;;;;;;21077646;28;20043;-49
2021/04/02 11:29:55;;;;;;;25.35;12.63;;;20.50;56.20;;;;;;21076805;28;20040;-49
2021/04/02 11:39:59;;;;;;;25.02;11.98;;;20.80;55.90;;;;;;21076083;28;20094;-54
2021/04/02 11:50:01;;;;;;;29.48;14.25;;;20.60;56.80;;;;;;21075876;28;20667;-49
2021/04/02 12:00:09;;;;;;;32.75;13.27;;;20.60;54.80;;;;;;21074624;28;20036;-50
2021/04/02 12:10:15;;;;;;;27.65;12.98;;;20.90;56.70;;;;;;21073038;28;20062;-54
2021/04/02 12:20:18;;;;;;;27.92;13.32;;;21.60;57.70;;;;;;21073283;28;20477;-49
2021/04/02 12:30:21;;;;;;;29.33;13.10;;;21.50;56.90;;;;;;21072713;28;20530;-50
2021/04/02 12:40:24;;;;;;;34.42;13.30;;;21.60;54.00;;;;;;21071808;28;20052;-52
2021/04/02 12:50:27;;;;;;;32.15;14.55;;;21.40;54.50;;;;;;21071387;28;20085;-51
2021/04/02 13:00:29;;;;;;;28.50;14.38;;;21.10;54.80;;;;;;21071314;28;20066;-49
2021/04/02 13:10:32;;;;;;;38.03;17.02;;;21.00;55.80;;;;;;21071047;28;20040;-55
2021/04/02 13:20:34;;;;;;;36.33;14.23;;;21.00;58.00;;;;;;21070642;28;20029;-51
2021/04/02 13:30:36;;;;;;;37.00;14.48;;;21.00;54.50;;;;;;21078724;28;20389;-49
2021/04/02 13:40:39;;;;;;;34.75;16.23;;;20.90;56.80;;;;;;21085369;28;20052;-55
2021/04/02 13:50:41;;;;;;;37.95;17.52;;;20.80;55.30;;;;;;21084906;28;20093;-50
2021/04/02 14:00:44;;;;;;;34.80;15.48;;;20.30;58.10;;;;;;21083972;28;20553;-50
2021/04/02 14:10:45;;;;;;;43.17;18.17;;;20.20;58.30;;;;;;21002368;28;20045;-55
2021/04/02 14:20:49;;;;;;;40.13;18.60;;;19.90;58.50;;;;;;20833396;28;20037;-49
2021/04/02 14:30:52;;;;;;;40.60;19.27;;;19.70;59.50;;;;;;20832743;28;20042;-50
2021/04/02 14:40:53;;;;;;;42.97;19.75;;;19.40;60.70;;;;;;20763966;28;20049;-53
2021/04/02 14:50:55;;;;;;;43.13;19.17;;;19.20;59.10;;;;;;20749391;28;20073;-53
2021/04/02 15:00:58;;;;;;;40.78;19.33;;;18.80;60.30;;;;;;20748500;28;20087;-48
2021/04/02 15:11:00;;;;;;;43.97;21.95;;;18.70;59.90;;;;;;20777212;28;20553;-50
2021/04/02 15:21:02;;;;;;;39.65;19.48;;;18.20;62.60;;;;;;20828547;28;20037;-49
2021/04/02 15:31:04;;;;;;;44.50;19.65;;;17.60;63.30;;;;;;20827949;28;20037;-50
2021/04/02 15:41:07;;;;;;;43.17;20.15;;;16.90;64.70;;;;;;20827528;28;20053;-47
2021/04/02 15:51:09;;;;;;;39.97;20.08;;;16.30;66.60;;;;;;20826070;28;20041;-49
2021/04/02 16:01:11;;;;;;;42.63;18.23;;;15.80;67.60;;;;;;20825812;28;20033;-48
2021/04/02 16:11:13;;;;;;;38.53;18.15;;;15.30;69.40;;;;;;20825033;28;20544;-48
2021/04/02 16:21:15;;;;;;;32.47;16.92;;;14.70;71.40;;;;;;20824279;28;20033;-52
2021/04/02 16:31:18;;;;;;;39.65;17.52;;;14.00;73.00;;;;;;20824030;28;20056;-48
2021/04/02 16:41:20;;;;;;;37.47;16.92;;;13.50;75.20;;;;;;20822199;28;20054;-48
2021/04/02 16:51:24;;;;;;;35.85;14.63;;;13.00;78.40;;;;;;20822994;28;20144;-53
2021/04/02 17:01:26;;;;;;;37.58;14.70;;;12.50;79.40;;;;;;20824435;28;20652;-48
2021/04/02 17:11:28;;;;;;;35.10;13.18;;;11.80;80.70;;;;;;20828072;28;20069;-50
2021/04/02 17:21:29;;;;;;;40.25;14.82;;;11.20;82.80;;;;;;20757430;28;20041;-52
2021/04/02 17:31:33;;;;;;;35.72;15.65;;;10.60;86.80;;;;;;20755646;28;20042;-48
2021/04/02 17:41:35;;;;;;;28.17;12.93;;;10.20;89.90;;;;;;20754585;28;20046;-47
2021/04/02 17:51:37;;;;;;;31.45;13.00;;;9.90;90.40;;;;;;20754175;28;20537;-48
2021/04/02 18:01:39;;;;;;;30.00;12.75;;;9.60;90.60;;;;;;20753134;28;20483;-50
2021/04/02 18:11:41;;;;;;;26.23;12.48;;;9.20;91.30;;;;;;20787234;28;20372;-48
2021/04/02 18:21:43;;;;;;;27.80;13.77;;;9.70;91.10;;;;;;20833280;28;20033;-48
2021/04/02 18:31:46;;;;;;;24.27;12.57;;;10.10;90.40;;;;;;20832786;28;20033;-48
2021/04/02 18:41:49;;;;;;;37.78;13.48;;;11.50;84.70;;;;;;20756589;28;20073;-49
2021/04/02 18:51:53;;;;;;;34.20;12.57;;;11.70;82.40;;;;;;20749801;28;20041;-48
2021/04/02 19:01:58;;;;;;;25.38;11.65;;;11.90;81.60;;;;;;20749301;28;20384;-52
2021/04/02 19:12:00;;;;;;;26.40;11.38;;;11.50;83.00;;;;;;20813210;28;20064;-51
2021/04/02 19:22:03;;;;;;;24.90;12.05;;;10.80;86.90;;;;;;20828411;28;20045;-48
2021/04/02 19:32:07;;;;;;;28.42;11.55;;;10.30;89.50;;;;;;20819670;28;20029;-59
2021/04/02 19:42:12;;;;;;;29.05;12.73;;;9.90;90.80;;;;;;20812871;28;20046;-55
2021/04/02 19:52:16;;;;;;;28.73;11.75;;;9.80;91.60;;;;;;20826144;28;20034;-53
2021/04/02 20:02:22;;;;;;;22.73;11.82;;;9.80;92.20;;;;;;20795701;28;20403;-57
2021/04/02 20:12:26;;;;;;;24.95;11.95;;;9.30;93.40;;;;;;20782211;28;20041;-50
2021/04/02 20:22:31;;;;;;;27.70;12.00;;;8.80;94.80;;;;;;20780612;28;20038;-53
2021/04/02 20:32:34;;;;;;;24.70;12.57;;;8.60;96.10;;;;;;20794742;28;20033;-52
2021/04/02 20:42:37;;;;;;;27.08;12.65;;;8.40;97.20;;;;;;20783289;28;20050;-54
2021/04/02 20:52:41;;;;;;;30.50;12.32;;;8.60;97.80;;;;;;20784631;28;20041;-51
2021/04/02 21:02:48;;;;;;;26.75;13.60;;;8.60;97.70;;;;;;20789443;28;20358;-49
2021/04/02 21:12:52;;;;;;;28.40;13.32;;;8.40;98.50;;;;;;20780225;28;20080;-50
2021/04/02 21:22:55;;;;;;;31.05;12.43;;;8.30;99.00;;;;;;20780603;28;20091;-56
2021/04/02 21:32:57;;;;;;;25.58;11.27;;;8.40;99.20;;;;;;20780594;28;20038;-53
2021/04/02 21:43:01;;;;;;;26.15;11.30;;;8.30;99.10;;;;;;20761884;28;20053;-55
2021/04/02 21:53:04;;;;;;;21.58;11.15;;;8.30;99.50;;;;;;20787936;28;20038;-50
2021/04/02 22:03:07;;;;;;;25.35;10.15;;;8.50;99.60;;;;;;20808655;28;20483;-47
2021/04/02 22:13:11;;;;;;;21.67;8.63;;;8.80;98.00;;;;;;20834756;28;20029;-49
2021/04/02 22:23:16;;;;;;;25.45;10.88;;;8.70;98.10;;;;;;20833814;28;20099;-47
2021/04/02 22:33:18;;;;;;;19.77;9.27;;;8.60;98.90;;;;;;20827837;28;20554;-48
2021/04/02 22:43:20;;;;;;;24.45;8.75;;;8.50;99.00;;;;;;20750357;28;20053;-47
2021/04/02 22:53:25;;;;;;;23.05;8.68;;;8.40;98.20;;;;;;20750002;28;20046;-52
2021/04/02 23:03:30;;;;;;;16.98;8.07;;;8.00;98.40;;;;;;20749118;28;20030;-47
2021/04/02 23:13:33;;;;;;;17.98;8.48;;;7.40;99.90;;;;;;20798251;28;20045;-47
2021/04/02 23:23:35;;;;;;;16.30;8.57;;;7.10;99.90;;;;;;20829337;28;20041;-48
2021/04/02 23:33:37;;;;;;;20.83;8.20;;;7.00;99.90;;;;;;20828947;28;20565;-47
2021/04/02 23:43:39;;;;;;;21.85;9.88;;;6.60;99.90;;;;;;20827007;28;20049;-46
2021/04/02 23:53:41;;;;;;;19.10;9.75;;;6.40;99.90;;;;;;20825711;28;20063;-46
